Time;durP1;ratioP1;P1;durP2;ratioP2;P2;SDS_P1;SDS_P2;PMS_P1;PMS_P2;Temp;Humidity;BMP_temperature;BMP_pressure;BME280_temperature;BME280_humidity;BME280_pressure;Samples;Min_cycle;Max_cycle;Signal;HPM_P1;HPM_P2
2021/05/19 00:00:46;;;;;;;24.17;7.07;;;7.00;96.50;;;;;;5012530;28;20061;-72
2021/05/19 00:03:12;;;;;;;11.87;9.10;;;7.00;96.50;;;;;;5023702;28;20117;-73
2021/05/19 00:05:40;;;;;;;12.77;10.63;;;6.90;96.60;;;;;;4985155;28;20172;-73
2021/05/19 00:08:09;;;;;;;13.73;11.43;;;6.90;96.70;;;;;;5025749;28;20120;-72
2021/05/19 00:10:39;;;;;;;11.80;10.17;;;6.80;96.90;;;;;;5009291;28;20034;-73
2021/05/19 00:13:05;;;;;;;10.40;8.30;;;6.80;97.10;;;;;;5023791;28;20034;-78
2021/05/19 00:15:32;;;;;;;13.23;10.73;;;6.80;96.90;;;;;;5024599;28;20042;-79
2021/05/19 00:18:04;;;;;;;13.80;11.00;;;6.90;97.00;;;;;;5024278;28;20112;-79
2021/05/19 00:20:31;;;;;;;14.73;11.70;;;6.80;97.30;;;;;;5022405;28;20609;-78
2021/05/19 00:22:57;;;;;;;17.13;12.53;;;6.80;97.10;;;;;;5014436;28;20037;-79
2021/05/19 00:25:23;;;;;;;17.90;12.37;;;6.80;97.10;;;;;;4999072;28;20102;-78
2021/05/19 00:27:49;;;;;;;16.33;12.53;;;6.70;97.10;;;;;;5009829;28;20073;-78
2021/05/19 00:30:19;;;;;;;12.10;10.77;;;6.70;97.20;;;;;;5012033;28;20119;-78
2021/05/19 00:32:45;;;;;;;11.77;9.27;;;6.70;97.10;;;;;;5027527;28;20051;-78
2021/05/19 00:35:11;;;;;;;13.90;10.67;;;6.70;96.90;;;;;;5026514;28;20045;-78
2021/05/19 00:37:37;;;;;;;14.40;11.40;;;6.70;97.10;;;;;;5023030;28;20044;-78
2021/05/19 00:40:04;;;;;;;12.27;10.33;;;6.70;97.20;;;;;;5013230;28;20041;-78
2021/05/19 00:42:30;;;;;;;12.63;10.63;;;6.70;97.20;;;;;;5013350;28;20038;-78
2021/05/19 00:44:56;;;;;;;11.47;9.83;;;6.70;97.20;;;;;;5000712;28;20068;-74
2021/05/19 00:47:32;;;;;;;14.97;11.20;;;6.70;97.20;;;;;;5003511;28;20053;-73
2021/05/19 00:49:58;;;;;;;11.67;10.07;;;6.70;97.40;;;;;;4974769;28;20049;-73
2021/05/19 00:52:25;;;;;;;15.80;12.57;;;6.70;97.50;;;;;;4988675;28;20108;-73
2021/05/19 00:54:51;;;;;;;13.87;11.13;;;6.70;97.60;;;;;;4986850;28;20041;-74
2021/05/19 00:57:17;;;;;;;24.73;13.70;;;6.70;97.60;;;;;;4974571;28;20088;-74
2021/05/19 00:59:44;;;;;;;14.63;10.20;;;6.80;97.50;;;;;;4991303;28;20046;-74
2021/05/19 01:02:10;;;;;;;14.13;11.57;;;6.80;97.40;;;;;;5003898;28;20034;-74
2021/05/19 01:04:36;;;;;;;14.87;11.03;;;6.90;97.50;;;;;;4989391;28;20038;-79
2021/05/19 01:07:08;;;;;;;16.33;11.40;;;6.80;97.50;;;;;;4988483;28;20095;-80
2021/05/19 01:09:37;;;;;;;15.07;12.37;;;6.80;97.50;;;;;;4989978;28;20046;-80
2021/05/19 01:12:11;;;;;;;16.07;13.50;;;6.80;97.60;;;;;;4973220;28;20038;-80
2021/05/19 01:14:37;;;;;;;20.37;14.03;;;6.90;97.80;;;;;;4988222;28;20052;-79
2021/05/19 01:17:04;;;;;;;15.93;12.83;;;7.00;98.00;;;;;;5006207;28;20038;-79
2021/05/19 01:19:31;;;;;;;21.17;15.57;;;7.00;97.70;;;;;;5007116;28;20038;-79
2021/05/19 01:22:25;;;;;;;14.67;11.50;;;7.00;97.80;;;;;;5009617;28;20037;-79
2021/05/19 01:24:53;;;;;;;15.17;13.00;;;7.10;97.70;;;;;;5009307;28;20049;-80
2021/05/19 01:27:21;;;;;;;16.20;13.93;;;7.10;97.70;;;;;;4989255;28;20072;-80
2021/05/19 01:29:51;;;;;;;16.17;13.30;;;7.10;98.00;;;;;;4985651;28;20034;-80
2021/05/19 01:32:18;;;;;;;17.60;13.47;;;7.20;97.90;;;;;;4990730;28;20593;-79
2021/05/19 01:34:44;;;;;;;22.63;14.93;;;7.20;98.00;;;;;;4974406;28;20042;-80
2021/05/19 01:37:12;;;;;;;16.90;13.90;;;7.30;97.90;;;;;;5006606;28;20045;-79
2021/05/19 01:39:42;;;;;;;16.10;13.20;;;7.30;97.80;;;;;;4988160;28;20068;-79
2021/05/19 01:42:08;;;;;;;17.20;13.87;;;7.30;97.90;;;;;;4973360;28;20942;-79
2021/05/19 01:44:35;;;;;;;16.73;13.20;;;7.40;97.80;;;;;;5010194;28;20045;-79
2021/05/19 01:47:04;;;;;;;17.93;12.87;;;7.40;97.90;;;;;;5007695;28;20046;-79
2021/05/19 01:49:37;;;;;;;33.93;16.17;;;7.40;98.00;;;;;;5009108;28;20073;-78
2021/05/19 01:52:05;;;;;;;13.30;10.50;;;7.30;97.80;;;;;;5006849;28;20048;-78
2021/05/19 01:54:32;;;;;;;15.27;11.93;;;7.30;97.70;;;;;;5005153;28;20692;-78
2021/05/19 01:56:59;;;;;;;13.80;11.60;;;7.30;97.80;;;;;;4972761;28;20129;-78
2021/05/19 01:59:25;;;;;;;14.87;11.63;;;7.30;97.80;;;;;;5004661;28;20037;-78
2021/05/19 02:01:51;;;;;;;16.37;13.17;;;7.30;97.80;;;;;;5022775;28;20472;-78
2021/05/19 02:04:18;;;;;;;16.13;13.63;;;7.30;97.90;;;;;;4986898;28;20046;-79
2021/05/19 02:06:51;;;;;;;23.10;17.27;;;7.40;98.00;;;;;;5002754;28;20034;-79
2021/05/19 02:09:18;;;;;;;17.57;13.90;;;7.40;98.00;;;;;;4988591;28;20551;-78
2021/05/19 02:11:45;;;;;;;15.30;13.70;;;7.40;97.90;;;;;;4987977;28;20053;-78
2021/05/19 02:14:11;;;;;;;15.53;12.77;;;7.40;97.90;;;;;;4971555;28;20076;-78
2021/05/19 02:16:37;;;;;;;18.70;12.93;;;7.50;98.00;;;;;;4985483;28;20038;-79
2021/05/19 02:19:04;;;;;;;20.30;15.57;;;7.50;97.90;;;;;;4986056;28;20559;-79
2021/05/19 02:21:30;;;;;;;26.97;18.93;;;7.50;98.00;;;;;;4975187;28;20041;-79
2021/05/19 02:23:59;;;;;;;24.30;16.90;;;7.60;98.10;;;;;;5007338;28;20046;-79
2021/05/19 02:26:26;;;;;;;24.07;16.37;;;7.60;98.00;;;;;;4985036;28;20480;-79
2021/05/19 02:28:52;;;;;;;18.60;16.07;;;7.60;98.00;;;;;;4988801;28;20040;-80
2021/05/19 02:31:19;;;;;;;20.17;15.40;;;7.60;98.00;;;;;;5005452;28;20068;-79
2021/05/19 02:33:45;;;;;;;18.43;14.87;;;7.50;98.00;;;;;;5007550;28;20041;-79
2021/05/19 02:36:13;;;;;;;21.47;16.57;;;7.50;98.10;;;;;;4955919;28;20042;-80
2021/05/19 02:38:39;;;;;;;23.13;19.03;;;7.50;98.10;;;;;;4983637;28;20509;-79
2021/05/19 02:41:05;;;;;;;22.17;17.23;;;7.50;98.10;;;;;;4969149;28;20036;-79
2021/05/19 02:43:31;;;;;;;24.27;18.47;;;7.50;98.30;;;;;;4986731;28;20049;-79
2021/05/19 02:46:01;;;;;;;22.87;19.10;;;7.60;98.30;;;;;;4987957;28;20044;-80
2021/05/19 02:48:27;;;;;;;20.93;16.13;;;7.60;98.30;;;;;;5020452;28;20068;-79
2021/05/19 02:50:55;;;;;;;24.53;17.50;;;7.60;98.40;;;;;;5006210;28;20580;-79
2021/05/19 02:53:21;;;;;;;19.70;15.70;;;7.70;98.40;;;;;;5005233;28;20116;-79
2021/05/19 02:55:48;;;;;;;33.40;20.97;;;7.70;98.50;;;;;;4994204;28;20585;-79
2021/05/19 02:58:14;;;;;;;27.43;19.87;;;7.80;98.50;;;;;;5011951;28;20069;-79
2021/05/19 03:00:40;;;;;;;36.93;24.93;;;7.80;98.50;;;;;;5021448;28;20329;-79
2021/05/19 03:03:06;;;;;;;27.27;19.70;;;7.80;98.50;;;;;;5009358;28;20045;-80
2021/05/19 03:05:32;;;;;;;27.67;20.73;;;7.80;98.50;;;;;;5024207;28;20099;-79
2021/05/19 03:07:58;;;;;;;24.03;19.63;;;7.80;98.60;;;;;;5007266;28;20057;-79
2021/05/19 03:10:25;;;;;;;29.47;22.27;;;8.00;98.60;;;;;;5011334;28;20029;-79
2021/05/19 03:12:52;;;;;;;37.03;23.20;;;7.90;98.50;;;;;;5015452;28;20037;-79
2021/05/19 03:15:19;;;;;;;28.67;20.43;;;8.00;98.60;;;;;;5017485;28;20033;-80
2021/05/19 03:17:46;;;;;;;27.37;19.83;;;7.90;98.70;;;;;;5006959;28;20069;-78
2021/05/19 03:20:14;;;;;;;26.13;20.03;;;7.90;98.70;;;;;;5024431;28;20037;-81
2021/05/19 03:22:40;;;;;;;28.40;19.87;;;8.00;98.70;;;;;;5022595;28;20113;-78
2021/05/19 03:25:07;;;;;;;27.03;21.10;;;8.00;98.70;;;;;;4996659;28;20046;-81
2021/05/19 03:27:36;;;;;;;30.40;22.13;;;8.00;98.70;;;;;;5018725;28;20048;-81
2021/05/19 03:30:05;;;;;;;25.40;19.00;;;8.00;98.70;;;;;;5022984;28;20124;-81
2021/05/19 03:32:32;;;;;;;26.48;21.27;;;8.00;98.70;;;;;;5021798;28;20719;-81
2021/05/19 03:35:00;;;;;;;32.03;22.23;;;8.00;98.70;;;;;;5023714;28;20707;-81
2021/05/19 03:37:26;;;;;;;25.60;19.77;;;8.00;98.70;;;;;;5022862;28;20119;-82
2021/05/19 03:39:52;;;;;;;28.13;19.93;;;8.00;98.60;;;;;;5007765;28;20045;-82
2021/05/19 03:42:18;;;;;;;24.97;19.10;;;8.00;98.60;;;;;;5023822;28;20055;-82
2021/05/19 03:44:44;;;;;;;26.73;19.53;;;7.90;98.60;;;;;;4995545;28;20076;-82
2021/05/19 03:47:10;;;;;;;29.80;21.90;;;8.00;98.60;;;;;;5001226;28;20128;-82
2021/05/19 03:49:39;;;;;;;27.23;21.73;;;8.00;99.00;;;;;;4987975;28;20050;-75
2021/05/19 03:52:06;;;;;;;39.90;26.80;;;8.10;98.70;;;;;;5001161;28;20493;-74
2021/05/19 03:54:34;;;;;;;34.53;24.67;;;8.10;98.70;;;;;;4974720;28;20056;-75
2021/05/19 03:57:03;;;;;;;25.07;19.30;;;8.10;98.60;;;;;;4956668;28;20056;-75
2021/05/19 03:59:29;;;;;;;29.07;21.77;;;8.20;99.00;;;;;;5003121;28;20077;-81
2021/05/19 04:01:55;;;;;;;26.90;19.30;;;8.20;98.80;;;;;;4994558;28;20052;-82
2021/05/19 04:04:24;;;;;;;32.70;23.27;;;8.20;98.80;;;;;;5006694;28;20098;-80
2021/05/19 04:06:50;;;;;;;27.67;22.70;;;8.20;98.80;;;;;;4987990;28;20068;-80
2021/05/19 04:09:16;;;;;;;29.03;21.97;;;8.20;98.80;;;;;;5003430;28;20489;-79
2021/05/19 04:11:42;;;;;;;26.83;22.00;;;8.20;98.80;;;;;;5002210;28;20044;-72
2021/05/19 04:14:09;;;;;;;26.17;20.73;;;8.20;98.70;;;;;;4992263;28;20520;-72
2021/05/19 04:16:35;;;;;;;27.47;20.93;;;8.20;98.70;;;;;;5004637;28;20044;-72
2021/05/19 04:19:02;;;;;;;30.13;23.00;;;8.20;98.70;;;;;;5002948;28;20476;-72
2021/05/19 04:21:28;;;;;;;31.37;22.00;;;8.20;98.80;;;;;;4997881;28;20073;-72
2021/05/19 04:23:54;;;;;;;24.17;19.53;;;8.10;98.80;;;;;;5009319;28;20636;-72
2021/05/19 04:26:20;;;;;;;28.47;21.07;;;8.10;98.80;;;;;;5007864;28;20045;-72
2021/05/19 04:28:46;;;;;;;26.70;21.00;;;8.20;98.80;;;;;;4991313;28;20641;-72
2021/05/19 04:31:12;;;;;;;27.80;21.10;;;8.10;98.70;;;;;;4988993;28;20034;-72
2021/05/19 04:33:38;;;;;;;25.38;18.50;;;8.10;98.70;;;;;;4993572;28;20038;-72
2021/05/19 04:36:04;;;;;;;24.97;20.40;;;8.10;98.70;;;;;;4990908;28;20049;-72
2021/05/19 04:38:31;;;;;;;17.17;14.97;;;8.10;98.70;;;;;;4989578;28;20046;-72
2021/05/19 04:41:00;;;;;;;23.57;20.07;;;8.10;98.70;;;;;;5007701;28;20548;-72
2021/05/19 04:43:26;;;;;;;30.43;22.90;;;8.10;98.70;;;;;;4987533;28;20499;-72
2021/05/19 04:45:52;;;;;;;30.43;23.37;;;8.10;99.10;;;;;;5008015;28;20041;-72
2021/05/19 04:48:18;;;;;;;25.80;20.45;;;8.20;98.80;;;;;;4993668;28;20077;-72
2021/05/19 04:50:44;;;;;;;27.17;22.50;;;8.10;98.70;;;;;;4977451;28;20489;-72
2021/05/19 04:53:10;;;;;;;27.93;22.50;;;8.20;98.80;;;;;;5003937;28;20038;-71
2021/05/19 04:55:38;;;;;;;35.67;23.30;;;8.20;98.90;;;;;;5006776;28;20579;-71
2021/05/19 04:58:05;;;;;;;28.60;21.37;;;8.20;99.00;;;;;;4989998;28;20522;-71
2021/05/19 05:00:32;;;;;;;33.22;21.67;;;8.30;99.00;;;;;;4989974;28;20118;-74
2021/05/19 05:02:58;;;;;;;30.97;22.53;;;8.40;98.90;;;;;;4981717;28;20049;-74
2021/05/19 05:05:24;;;;;;;37.07;26.00;;;8.50;99.20;;;;;;4990305;28;20633;-74
2021/05/19 05:07:50;;;;;;;28.60;21.43;;;8.50;98.80;;;;;;4987274;28;20038;-74
2021/05/19 05:10:16;;;;;;;38.80;24.90;;;8.60;98.90;;;;;;5005195;28;20465;-74
2021/05/19 05:12:44;;;;;;;32.73;25.40;;;8.60;98.70;;;;;;5006764;28;20128;-74
2021/05/19 05:15:11;;;;;;;28.83;23.27;;;8.70;98.80;;;;;;4984071;28;20491;-74
2021/05/19 05:17:38;;;;;;;31.93;24.03;;;8.80;98.90;;;;;;5001856;28;20057;-81
2021/05/19 05:20:09;;;;;;;25.37;21.43;;;8.90;98.90;;;;;;4982760;28;20100;-82
2021/05/19 05:22:36;;;;;;;28.73;22.63;;;9.10;99.00;;;;;;4985933;28;20040;-83
2021/05/19 05:25:04;;;;;;;26.10;22.17;;;9.20;98.80;;;;;;5000702;28;20096;-82
2021/05/19 05:27:29;;;;;;;27.23;20.43;;;9.30;98.70;;;;;;4989876;28;20452;-82
2021/05/19 05:29:55;;;;;;;22.83;19.25;;;9.30;98.60;;;;;;4990585;28;20050;-82
2021/05/19 05:32:21;;;;;;;28.60;21.17;;;9.40;98.50;;;;;;5004075;28;20054;-82
2021/05/19 05:34:47;;;;;;;27.90;20.67;;;9.40;98.50;;;;;;5009196;28;20262;-82
2021/05/19 05:37:14;;;;;;;28.60;21.65;;;9.40;98.50;;;;;;5002119;28;20116;-82
2021/05/19 05:39:40;;;;;;;28.60;22.83;;;9.40;98.50;;;;;;5004204;28;20034;-82
2021/05/19 05:42:06;;;;;;;26.95;20.25;;;9.40;98.40;;;;;;4984965;28;20038;-79
2021/05/19 05:44:32;;;;;;;34.50;26.85;;;9.40;98.50;;;;;;4990044;28;20099;-80
2021/05/19 05:47:01;;;;;;;34.88;25.70;;;9.40;98.60;;;;;;4999121;28;20467;-82
2021/05/19 05:49:29;;;;;;;36.20;26.13;;;9.50;98.90;;;;;;4993562;28;20041;-83
2021/05/19 05:51:55;;;;;;;41.03;28.13;;;9.50;98.60;;;;;;5005288;28;20037;-80
2021/05/19 05:54:21;;;;;;;33.43;23.63;;;9.50;98.60;;;;;;5014597;28;20058;-80
2021/05/19 05:56:47;;;;;;;34.03;25.02;;;9.70;98.60;;;;;;5009230;28;20997;-81
2021/05/19 05:59:13;;;;;;;41.55;26.17;;;9.60;98.50;;;;;;4992331;28;20068;-83
2021/05/19 06:01:39;;;;;;;31.77;22.80;;;9.60;98.50;;;;;;4990930;28;20109;-75
2021/05/19 06:04:05;;;;;;;47.80;29.03;;;9.70;98.50;;;;;;5002295;28;20122;-75
2021/05/19 06:06:31;;;;;;;31.67;24.25;;;9.70;98.40;;;;;;5006319;28;20092;-82
2021/05/19 06:08:58;;;;;;;38.13;26.80;;;9.70;98.50;;;;;;5008533;28;20046;-82
2021/05/19 06:11:23;;;;;;;40.97;27.98;;;9.80;98.50;;;;;;5001733;28;20040;-82
2021/05/19 06:13:49;;;;;;;34.97;25.52;;;9.80;98.50;;;;;;5002172;28;20033;-82
2021/05/19 06:16:15;;;;;;;39.38;27.45;;;9.90;98.50;;;;;;5005616;28;20103;-82
2021/05/19 06:18:41;;;;;;;42.38;28.55;;;9.90;98.40;;;;;;5007510;28;20041;-82
2021/05/19 06:21:07;;;;;;;39.15;26.75;;;10.00;98.50;;;;;;5005783;28;20048;-81
2021/05/19 06:23:33;;;;;;;40.40;28.38;;;10.00;98.40;;;;;;5025117;28;20069;-81
2021/05/19 06:25:59;;;;;;;38.80;27.55;;;10.10;98.40;;;;;;5009363;28;20492;-81
2021/05/19 06:28:25;;;;;;;44.03;30.17;;;10.10;98.50;;;;;;5021612;28;20049;-81
2021/05/19 06:30:51;;;;;;;40.70;28.20;;;10.20;98.50;;;;;;4985935;28;20467;-82
2021/05/19 06:33:17;;;;;;;34.05;27.90;;;10.20;98.50;;;;;;5029007;28;20493;-81
2021/05/19 06:35:42;;;;;;;43.00;29.38;;;10.30;98.40;;;;;;5026270;28;20077;-82
2021/05/19 06:38:08;;;;;;;42.15;28.88;;;10.30;98.40;;;;;;4992431;28;20068;-82
2021/05/19 06:40:34;;;;;;;42.08;28.50;;;10.40;98.40;;;;;;4994362;28;20065;-79
2021/05/19 06:43:01;;;;;;;46.83;29.98;;;10.40;98.40;;;;;;5031723;28;20477;-78
2021/05/19 06:45:29;;;;;;;45.95;29.83;;;10.50;98.40;;;;;;5028739;28;20077;-78
2021/05/19 06:47:55;;;;;;;43.22;29.60;;;10.60;98.50;;;;;;5002903;28;20069;-79
2021/05/19 06:50:21;;;;;;;43.38;29.05;;;10.60;98.40;;;;;;5006037;28;20037;-79
2021/05/19 06:52:47;;;;;;;45.10;29.73;;;10.70;98.40;;;;;;5014017;28;20116;-78
2021/05/19 06:55:14;;;;;;;39.45;29.77;;;10.70;98.30;;;;;;5001697;28;20107;-79
2021/05/19 06:57:40;;;;;;;38.95;28.17;;;10.80;98.20;;;;;;5006431;28;20063;-79
2021/05/19 07:00:08;;;;;;;39.25;29.33;;;10.90;98.20;;;;;;4992454;28;20071;-79
2021/05/19 07:02:37;;;;;;;46.33;30.08;;;10.90;98.10;;;;;;5021465;28;20060;-78
2021/05/19 07:05:05;;;;;;;42.80;29.65;;;11.00;98.10;;;;;;4988365;28;20518;-78
2021/05/19 07:07:31;;;;;;;44.38;31.38;;;11.10;98.00;;;;;;5012872;28;20087;-79
2021/05/19 07:09:57;;;;;;;42.13;31.63;;;11.10;98.00;;;;;;4990928;28;20042;-77
2021/05/19 07:12:23;;;;;;;41.45;30.85;;;11.20;98.00;;;;;;5018391;28;20108;-79
2021/05/19 07:15:11;;;;;;;41.67;29.92;;;11.30;98.00;;;;;;5011795;28;20496;-79
2021/05/19 07:17:37;;;;;;;39.10;28.48;;;11.40;97.90;;;;;;5004991;28;20044;-77
2021/05/19 07:20:06;;;;;;;44.22;31.20;;;11.50;97.60;;;;;;5004196;28;20107;-76
2021/05/19 07:22:32;;;;;;;45.17;29.02;;;11.50;97.50;;;;;;5030932;28;20091;-77
2021/05/19 07:25:00;;;;;;;43.30;29.92;;;11.50;97.70;;;;;;4989901;28;20450;-77
2021/05/19 07:27:26;;;;;;;41.38;30.38;;;11.50;97.50;;;;;;4989773;28;20559;-77
2021/05/19 07:29:52;;;;;;;35.70;27.25;;;11.60;97.30;;;;;;5014075;28;20124;-77
2021/05/19 07:32:19;;;;;;;38.85;29.35;;;11.70;97.30;;;;;;4989199;28;20037;-77
2021/05/19 07:34:44;;;;;;;34.85;27.40;;;11.80;97.20;;;;;;5035549;28;20041;-78
2021/05/19 07:37:14;;;;;;;35.03;26.92;;;12.00;97.50;;;;;;5000127;28;20037;-80
2021/05/19 07:39:39;;;;;;;35.25;27.50;;;12.40;97.30;;;;;;5022204;28;20042;-79
2021/05/19 07:42:05;;;;;;;32.40;24.52;;;12.70;97.10;;;;;;5005936;28;20041;-77
2021/05/19 07:44:32;;;;;;;31.85;24.98;;;12.80;96.40;;;;;;5014638;28;20037;-76
2021/05/19 07:46:58;;;;;;;30.95;22.85;;;13.00;96.10;;;;;;4998553;28;20136;-76
2021/05/19 07:49:24;;;;;;;29.02;21.35;;;13.00;95.90;;;;;;5004028;28;20498;-77
2021/05/19 07:51:50;;;;;;;27.30;21.63;;;13.10;95.80;;;;;;4999326;28;20885;-77
2021/05/19 07:54:26;;;;;;;26.23;18.77;;;13.20;95.50;;;;;;4963650;28;20519;-77
2021/05/19 07:57:01;;;;;;;25.40;19.83;;;13.40;94.70;;;;;;4983397;28;20042;-77
2021/05/19 07:59:33;;;;;;;26.83;21.17;;;13.50;94.60;;;;;;4983332;28;20070;-76
2021/05/19 08:02:07;;;;;;;26.42;21.00;;;13.80;94.60;;;;;;4967132;28;20424;-76
2021/05/19 08:04:35;;;;;;;25.73;20.60;;;13.70;93.90;;;;;;5000864;28;20050;-76
2021/05/19 08:07:02;;;;;;;23.92;19.65;;;13.90;94.00;;;;;;4999698;28;20088;-78
2021/05/19 08:09:29;;;;;;;24.05;20.63;;;14.10;93.90;;;;;;4998928;28;20106;-78
2021/05/19 08:11:55;;;;;;;22.73;17.85;;;14.30;93.70;;;;;;4987115;28;20041;-78
2021/05/19 08:14:21;;;;;;;24.65;17.52;;;14.20;93.30;;;;;;5000076;28;20054;-77
2021/05/19 08:16:47;;;;;;;20.95;17.83;;;14.10;92.90;;;;;;4964136;28;20141;-78
2021/05/19 08:19:13;;;;;;;22.23;17.40;;;13.90;92.70;;;;;;5003540;28;20496;-78
2021/05/19 08:21:40;;;;;;;23.20;20.00;;;13.80;92.60;;;;;;4985600;28;20050;-77
2021/05/19 08:24:09;;;;;;;27.65;20.23;;;13.70;92.80;;;;;;4972221;28;20053;-79
2021/05/19 08:26:36;;;;;;;24.80;20.75;;;13.70;93.00;;;;;;4998131;28;20413;-79
2021/05/19 08:29:03;;;;;;;21.75;18.15;;;13.70;93.30;;;;;;5001069;28;20068;-78
2021/05/19 08:31:29;;;;;;;46.72;29.58;;;14.00;92.80;;;;;;4998835;28;20319;-78
2021/05/19 08:33:57;;;;;;;23.58;20.55;;;14.00;92.20;;;;;;4999475;28;20038;-79
2021/05/19 08:36:24;;;;;;;23.10;19.98;;;14.00;92.40;;;;;;4979808;28;20508;-78
2021/05/19 08:38:50;;;;;;;22.20;19.75;;;14.00;92.20;;;;;;4999398;28;20034;-79
2021/05/19 08:41:16;;;;;;;24.05;20.92;;;14.00;92.20;;;;;;4980932;28;20521;-80
2021/05/19 08:43:43;;;;;;;20.20;18.08;;;14.10;92.90;;;;;;5005316;28;20042;-78
2021/05/19 08:46:10;;;;;;;20.52;16.38;;;14.30;92.40;;;;;;5000144;28;20117;-79
2021/05/19 08:48:37;;;;;;;20.02;16.23;;;14.40;91.90;;;;;;4971511;28;20042;-79
2021/05/19 08:51:04;;;;;;;17.40;13.93;;;14.40;91.70;;;;;;5008653;28;20037;-78
2021/05/19 08:53:31;;;;;;;21.58;15.15;;;14.50;91.20;;;;;;4988142;28;20497;-79
2021/05/19 08:55:58;;;;;;;18.15;15.85;;;14.40;91.20;;;;;;5009018;28;20035;-80
2021/05/19 08:58:24;;;;;;;18.80;16.40;;;14.30;90.40;;;;;;4967231;28;20041;-79
2021/05/19 09:00:50;;;;;;;21.33;19.02;;;14.30;90.60;;;;;;5008872;28;20609;-79
2021/05/19 09:03:17;;;;;;;22.42;19.85;;;14.10;90.70;;;;;;4969731;28;20088;-78
2021/05/19 09:05:50;;;;;;;19.27;15.25;;;13.90;91.20;;;;;;5008651;28;20037;-78
2021/05/19 09:08:18;;;;;;;17.13;14.70;;;13.70;91.20;;;;;;5001013;28;20042;-78
2021/05/19 09:11:03;;;;;;;18.10;15.63;;;13.50;91.40;;;;;;4988941;28;20034;-80
2021/05/19 09:13:44;;;;;;;20.30;15.30;;;13.30;91.50;;;;;;4956260;28;20092;-80
2021/05/19 09:16:12;;;;;;;23.00;15.60;;;13.10;92.10;;;;;;5020824;28;20034;-79
2021/05/19 09:18:53;;;;;;;21.17;16.77;;;13.00;92.60;;;;;;4950611;28;20042;-79
2021/05/19 09:21:39;;;;;;;16.40;14.07;;;13.00;93.20;;;;;;4989431;28;20030;-79
2021/05/19 09:24:33;;;;;;;12.93;9.40;;;13.00;93.40;;;;;;4983996;28;20451;-80
2021/05/19 09:27:00;;;;;;;10.38;9.32;;;13.00;92.30;;;;;;5003023;28;20033;-80
2021/05/19 09:29:26;;;;;;;10.05;9.00;;;13.00;92.80;;;;;;4987448;28;20530;-79
2021/05/19 09:32:04;;;;;;;14.43;11.02;;;13.00;92.70;;;;;;4983170;28;20126;-80
2021/05/19 09:34:38;;;;;;;12.82;11.40;;;13.10;92.90;;;;;;5023004;28;20049;-80
2021/05/19 09:37:16;;;;;;;17.20;13.32;;;13.10;93.20;;;;;;4988700;28;20040;-80
2021/05/19 09:39:55;;;;;;;15.57;13.50;;;13.00;93.00;;;;;;5004045;28;20400;-81
2021/05/19 09:42:24;;;;;;;14.20;12.63;;;12.90;93.00;;;;;;4983658;28;20033;-80
2021/05/19 09:44:51;;;;;;;21.33;15.68;;;12.80;93.20;;;;;;4989765;28;20041;-81
2021/05/19 09:47:40;;;;;;;19.13;16.88;;;12.70;93.60;;;;;;5013001;28;20042;-80
2021/05/19 09:50:08;;;;;;;22.08;17.63;;;12.70;93.80;;;;;;5008314;28;20046;-80
2021/05/19 09:52:36;;;;;;;19.75;15.40;;;12.60;94.00;;;;;;5025645;28;20210;-79
2021/05/19 09:55:09;;;;;;;9.05;8.00;;;12.50;94.10;;;;;;5013333;28;20496;-78
2021/05/19 09:57:43;;;;;;;5.65;4.13;;;12.40;93.50;;;;;;5008104;28;20428;-79
2021/05/19 10:00:12;;;;;;;6.45;1.98;;;12.10;93.00;;;;;;5028802;28;20128;-79
2021/05/19 10:02:38;;;;;;;5.45;1.50;;;11.80;91.90;;;;;;5021495;28;20045;-78
2021/05/19 10:05:17;;;;;;;3.90;1.20;;;11.50;92.10;;;;;;5017005;28;20038;-79
2021/05/19 10:07:46;;;;;;;2.42;0.93;;;11.30;92.30;;;;;;5007316;28;20121;-80
2021/05/19 10:10:12;;;;;;;8.30;1.50;;;11.10;92.70;;;;;;5023797;28;20067;-80
2021/05/19 10:12:40;;;;;;;2.47;1.23;;;11.00;93.00;;;;;;5016171;28;20382;-81
2021/05/19 10:15:25;;;;;;;2.08;1.20;;;11.00;93.40;;;;;;5015475;28;20054;-81
2021/05/19 10:18:03;;;;;;;3.03;1.40;;;10.90;93.70;;;;;;5018081;28;20038;-81
2021/05/19 10:20:33;;;;;;;3.17;1.17;;;10.90;94.10;;;;;;5009095;28;20048;-81
2021/05/19 10:22:59;;;;;;;5.55;1.42;;;10.90;94.20;;;;;;4994055;28;20052;-80
2021/05/19 10:25:43;;;;;;;2.63;1.50;;;11.00;94.30;;;;;;5011789;28;20037;-81
2021/05/19 10:28:11;;;;;;;3.05;1.77;;;11.00;94.50;;;;;;5023418;28;20037;-80
2021/05/19 10:30:54;;;;;;;1.75;0.80;;;11.20;94.90;;;;;;5014827;28;20042;-81
2021/05/19 10:33:29;;;;;;;1.15;0.60;;;11.60;95.00;;;;;;5017568;28;20728;-80
2021/05/19 10:35:56;;;;;;;1.85;0.60;;;12.00;94.20;;;;;;5012290;28;20453;-79
2021/05/19 10:38:34;;;;;;;1.05;0.55;;;12.40;93.60;;;;;;5016232;28;20515;-79
2021/05/19 10:41:05;;;;;;;0.77;0.60;;;12.70;90.80;;;;;;5000084;28;20049;-79
2021/05/19 10:43:48;;;;;;;1.63;0.88;;;12.80;91.00;;;;;;5012734;28;20619;-79
2021/05/19 10:46:17;;;;;;;2.38;0.88;;;12.80;91.50;;;;;;5015001;28;20377;-79
2021/05/19 10:48:54;;;;;;;1.90;0.85;;;12.80;92.00;;;;;;5012976;28;20095;-78
2021/05/19 10:51:39;;;;;;;1.95;0.90;;;12.90;91.30;;;;;;4999546;28;20050;-79
2021/05/19 11:00:30;;;;;;;4.10;2.40;;;13.10;92.20;;;;;;5017307;28;20672;-79
2021/05/19 11:03:02;;;;;;;5.53;3.70;;;13.20;92.30;;;;;;5023376;28;20067;-80
2021/05/19 11:06:00;;;;;;;6.13;2.97;;;13.20;92.60;;;;;;5015313;28;20037;-80
2021/05/19 11:08:30;;;;;;;10.32;7.82;;;13.20;92.60;;;;;;5009489;28;20431;-78
2021/05/19 11:11:28;;;;;;;8.30;5.95;;;13.20;92.80;;;;;;4997226;28;20622;-80
2021/05/19 11:14:32;;;;;;;11.90;7.53;;;13.20;92.60;;;;;;5015109;28;20393;-78
2021/05/19 11:17:13;;;;;;;10.00;7.80;;;13.00;92.40;;;;;;5014847;28;20099;-80
2021/05/19 11:19:39;;;;;;;9.55;7.00;;;12.80;92.40;;;;;;5012377;28;20720;-78
2021/05/19 11:22:12;;;;;;;12.02;7.00;;;12.60;92.20;;;;;;5009462;28;20582;-79
2021/05/19 11:24:51;;;;;;;10.10;4.90;;;12.40;92.30;;;;;;5010371;28;20190;-78
2021/05/19 11:27:19;;;;;;;7.07;4.55;;;12.10;92.00;;;;;;5015046;28;20397;-80
2021/05/19 11:29:46;;;;;;;6.70;3.88;;;11.80;92.30;;;;;;4999531;28;20038;-80
2021/05/19 11:32:17;;;;;;;4.88;2.38;;;11.50;92.20;;;;;;5020436;28;20037;-79
2021/05/19 11:34:43;;;;;;;2.67;1.98;;;11.30;92.20;;;;;;5018834;28;20095;-80
2021/05/19 11:37:10;;;;;;;6.22;2.15;;;11.00;92.30;;;;;;5021558;28;20037;-79
2021/05/19 11:39:44;;;;;;;5.57;2.55;;;10.90;92.50;;;;;;4992657;28;20040;-79
2021/05/19 11:42:29;;;;;;;5.43;2.92;;;10.70;92.80;;;;;;5009543;28;20038;-78
2021/05/19 11:44:58;;;;;;;8.65;3.40;;;10.60;93.10;;;;;;5010184;28;20527;-78
2021/05/19 11:47:43;;;;;;;10.60;4.45;;;10.40;93.70;;;;;;4999254;28;20054;-80
2021/05/19 11:50:12;;;;;;;9.40;3.92;;;10.40;94.10;;;;;;5006659;28;20042;-79
2021/05/19 11:52:39;;;;;;;6.57;3.53;;;10.30;94.30;;;;;;5003778;28;20172;-80
2021/05/19 11:55:06;;;;;;;8.70;4.10;;;10.30;94.60;;;;;;4987860;28;20050;-80
2021/05/19 11:57:32;;;;;;;7.82;3.85;;;10.20;94.70;;;;;;4985018;28;20048;-76
2021/05/19 11:59:58;;;;;;;6.60;3.72;;;10.20;94.90;;;;;;4987383;28;20460;-76
2021/05/19 12:02:24;;;;;;;6.38;3.70;;;10.20;95.10;;;;;;4997348;28;20049;-81
2021/05/19 12:04:50;;;;;;;5.03;3.10;;;10.10;95.20;;;;;;5005405;28;20045;-80
2021/05/19 12:07:17;;;;;;;4.20;2.22;;;10.10;95.30;;;;;;5002690;28;20050;-80
2021/05/19 12:09:43;;;;;;;2.65;1.40;;;10.10;95.40;;;;;;4971869;28;20069;-80
2021/05/19 12:12:12;;;;;;;4.70;1.23;;;10.10;95.40;;;;;;4968632;28;20096;-80
2021/05/19 12:14:40;;;;;;;1.45;0.70;;;10.20;95.50;;;;;;4986058;28;20490;-79
2021/05/19 12:17:06;;;;;;;2.53;1.10;;;10.20;95.60;;;;;;4978212;28;20041;-79
2021/05/19 12:19:39;;;;;;;1.98;0.90;;;10.30;95.80;;;;;;4977389;28;20080;-80
2021/05/19 12:22:12;;;;;;;2.17;1.35;;;10.30;95.80;;;;;;4985678;28;20056;-80
2021/05/19 12:24:38;;;;;;;3.50;1.30;;;10.40;96.00;;;;;;4989095;28;20033;-79
2021/05/19 12:27:05;;;;;;;3.92;1.50;;;10.60;96.10;;;;;;5006526;28;20133;-80
2021/05/19 12:29:44;;;;;;;2.78;1.00;;;10.70;96.10;;;;;;5001095;28;20038;-80
2021/05/19 12:32:20;;;;;;;2.83;1.30;;;10.80;96.00;;;;;;4983768;28;20037;-80
2021/05/19 12:35:07;;;;;;;4.47;1.33;;;10.90;96.00;;;;;;5004150;28;20503;-80
2021/05/19 12:37:39;;;;;;;2.38;1.65;;;11.00;96.00;;;;;;5010285;28;20548;-78
2021/05/19 12:40:07;;;;;;;4.57;2.15;;;11.20;95.90;;;;;;4988826;28;20055;-78
2021/05/19 12:42:55;;;;;;;4.00;1.58;;;11.30;95.80;;;;;;4971249;28;20034;-79
2021/05/19 12:45:33;;;;;;;3.50;1.77;;;11.40;95.70;;;;;;4967115;28;20077;-78
2021/05/19 12:48:05;;;;;;;3.92;2.08;;;11.40;95.70;;;;;;4990388;28;20046;-80
2021/05/19 12:50:46;;;;;;;3.40;2.25;;;11.50;95.70;;;;;;4999822;28;20049;-80